Time;durP1;ratioP1;P1;durP2;ratioP2;P2;SDS_P1;SDS_P2;PMS_P1;PMS_P2;Temp;Humidity;BMP_temperature;BMP_pressure;BME280_temperature;BME280_humidity;BME280_pressure;Samples;Min_cycle;Max_cycle;Signal;HPM_P1;HPM_P2
2024/03/04 00:01:00;;;;;;;30.60;16.75;;;;;;;4.90;73.82;99113.25;4966877;28;20021;-93
2024/03/04 00:03:26;;;;;;;29.83;15.77;;;;;;;5.01;73.67;99131.91;4967605;28;20036;-93
2024/03/04 00:05:51;;;;;;;30.60;16.17;;;;;;;4.78;73.58;99092.78;4965324;28;20404;-93
2024/03/04 00:08:17;;;;;;;30.92;16.48;;;;;;;4.69;73.78;99091.53;4981682;28;20115;-93
2024/03/04 00:10:43;;;;;;;28.30;15.95;;;;;;;4.80;73.86;99108.56;4979512;28;20025;-93
2024/03/04 00:13:08;;;;;;;30.77;16.63;;;;;;;4.85;74.20;99112.09;4964873;28;20029;-93
2024/03/04 00:15:35;;;;;;;31.50;16.70;;;;;;;4.75;73.74;99106.59;4958823;28;20088;-93
2024/03/04 00:18:03;;;;;;;28.90;16.38;;;;;;;4.93;73.98;99126.94;4965645;28;20034;-92
2024/03/04 00:20:29;;;;;;;29.35;16.23;;;;;;;4.84;73.98;99112.38;4961639;28;20034;-91
2024/03/04 00:22:54;;;;;;;27.33;15.70;;;;;;;4.78;73.89;99100.78;4978476;28;20029;-92
2024/03/04 00:25:20;;;;;;;27.10;16.52;;;;;;;4.82;74.31;99109.13;4974749;28;20022;-93
2024/03/04 00:27:47;;;;;;;34.85;16.42;;;;;;;4.66;73.89;99092.81;4976658;28;20104;-92
2024/03/04 00:30:13;;;;;;;28.73;16.52;;;;;;;4.77;74.04;99120.50;4959802;28;20103;-92
2024/03/04 00:32:39;;;;;;;31.25;16.50;;;;;;;4.74;73.83;99112.97;4963854;28;20064;-93
2024/03/04 00:35:06;;;;;;;24.95;15.38;;;;;;;4.82;74.03;99114.47;4963631;28;20089;-93
2024/03/04 00:37:32;;;;;;;35.88;16.30;;;;;;;4.66;73.77;99092.00;4962917;28;20029;-91
2024/03/04 00:39:57;;;;;;;26.95;16.80;;;;;;;4.66;74.50;99098.13;4965685;28;20396;-92
2024/03/04 00:42:25;;;;;;;26.25;15.80;;;;;;;4.77;73.78;99125.00;4979496;28;20034;-93
2024/03/04 00:44:51;;;;;;;34.75;17.15;;;;;;;4.52;73.05;99090.66;4965241;28;20124;-92
2024/03/04 00:47:17;;;;;;;29.05;16.55;;;;;;;4.63;73.49;99119.16;4981085;28;20057;-92
2024/03/04 00:49:45;;;;;;;38.50;17.75;;;;;;;4.57;73.03;99107.56;4965976;28;20036;-93
2024/03/04 00:52:12;;;;;;;32.20;16.85;;;;;;;4.53;73.46;99101.09;4982675;28;20029;-91
2024/03/04 00:54:37;;;;;;;30.75;16.40;;;;;;;4.42;73.41;99092.06;4966304;28;20024;-91
2024/03/04 00:57:04;;;;;;;36.42;17.55;;;;;;;4.42;73.53;99102.75;4965640;28;20022;-91
2024/03/04 00:59:32;;;;;;;25.27;16.15;;;;;;;4.28;74.02;99103.22;4967046;28;20022;-91
2024/03/04 01:01:59;;;;;;;30.70;17.70;;;;;;;4.24;74.27;99106.34;4966629;28;20033;-92
2024/03/04 01:04:24;;;;;;;33.63;17.02;;;;;;;4.27;74.08;99104.25;4966193;28;20029;-91
2024/03/04 01:06:52;;;;;;;35.40;17.13;;;;;;;4.19;75.16;99105.41;4966408;28;20026;-91
2024/03/04 01:09:21;;;;;;;34.17;17.33;;;;;;;4.09;75.21;99095.38;4966835;28;20062;-91
2024/03/04 01:11:46;;;;;;;35.97;16.15;;;;;;;4.06;74.89;99085.16;4983498;28;20049;-91
2024/03/04 01:14:12;;;;;;;26.20;16.02;;;;;;;4.08;74.34;99091.06;4966826;28;20048;-93
2024/03/04 01:16:41;;;;;;;37.08;18.02;;;;;;;4.00;75.52;99086.09;4965575;28;20095;-92
2024/03/04 01:19:08;;;;;;;32.20;17.17;;;;;;;4.08;74.34;99079.59;4967315;28;20117;-92
2024/03/04 01:21:34;;;;;;;29.42;16.05;;;;;;;4.20;73.87;99077.75;4966855;28;20412;-93
2024/03/04 01:24:00;;;;;;;29.17;14.77;;;;;;;4.42;73.98;99099.25;4966519;28;20033;-92
2024/03/04 01:26:26;;;;;;;34.15;15.80;;;;;;;4.48;73.58;99094.81;4966403;28;20407;-92
2024/03/04 01:28:52;;;;;;;26.92;14.55;;;;;;;4.59;73.50;99110.00;4963421;28;20050;-92
2024/03/04 01:31:21;;;;;;;26.10;14.77;;;;;;;4.50;73.39;99084.75;4963384;28;20030;-92
2024/03/04 01:33:51;;;;;;;19.08;12.40;;;;;;;4.79;73.10;99114.91;4948727;28;20026;-91
2024/03/04 01:36:18;;;;;;;27.37;14.83;;;;;;;4.71;72.89;99108.13;4980424;28;20056;-93
2024/03/04 01:38:43;;;;;;;32.00;16.48;;;;;;;4.39;73.03;99091.72;4964115;28;20273;-92
2024/03/04 01:41:09;;;;;;;25.65;15.32;;;;;;;4.15;73.41;99090.94;4964415;28;20442;-91
2024/03/04 01:43:34;;;;;;;26.65;15.70;;;;;;;4.12;73.54;99102.88;4948177;28;20037;-92
2024/03/04 01:46:00;;;;;;;25.33;16.02;;;;;;;4.01;73.89;99093.84;4962861;28;20579;-92
2024/03/04 01:48:25;;;;;;;27.08;15.38;;;;;;;3.89;74.08;99092.25;4946378;28;20030;-91
2024/03/04 01:50:51;;;;;;;30.25;15.82;;;;;;;3.88;74.56;99102.09;4962625;28;20034;-92
2024/03/04 01:53:16;;;;;;;26.17;16.10;;;;;;;3.68;74.68;99094.44;4962669;28;20003;-90
2024/03/04 01:55:46;;;;;;;32.40;16.05;;;;;;;3.75;73.95;99100.44;4962033;28;20404;-92
2024/03/04 01:58:12;;;;;;;26.67;14.75;;;;;;;3.88;74.11;99127.88;4962487;28;20065;-91
2024/03/04 02:00:42;;;;;;;27.25;16.83;;;;;;;3.59;74.84;99112.59;4962441;28;20041;-91
2024/03/04 02:03:09;;;;;;;29.30;16.40;;;;;;;3.54;75.51;99115.13;4961829;28;20469;-91
2024/03/04 02:05:35;;;;;;;28.80;16.70;;;;;;;3.50;76.06;99110.47;4963767;28;20026;-91
2024/03/04 02:08:00;;;;;;;29.90;16.48;;;;;;;3.67;75.83;99130.06;4963250;28;20037;-91
2024/03/04 02:10:26;;;;;;;33.60;17.05;;;;;;;3.48;76.27;99108.03;4962433;28;20034;-92
2024/03/04 02:12:52;;;;;;;26.63;15.90;;;;;;;3.51;76.56;99120.06;4963458;28;20030;-91
2024/03/04 02:15:18;;;;;;;34.92;16.40;;;;;;;3.68;76.40;99123.72;4961964;28;20037;-94
2024/03/04 02:17:43;;;;;;;30.05;16.27;;;;;;;3.62;75.91;99109.47;4962611;28;20026;-92
2024/03/04 02:20:10;;;;;;;33.28;15.93;;;;;;;3.52;76.20;99093.22;4962896;28;20034;-92
2024/03/04 02:22:35;;;;;;;29.38;16.42;;;;;;;3.56;75.85;99093.59;4962015;28;20037;-92
2024/03/04 02:25:05;;;;;;;32.35;17.63;;;;;;;3.68;76.25;99106.94;4963143;28;20062;-92
2024/03/04 02:27:31;;;;;;;33.15;17.17;;;;;;;3.67;75.96;99098.09;4962918;28;20436;-93
2024/03/04 02:29:56;;;;;;;29.70;16.13;;;;;;;3.76;75.84;99115.38;4962524;28;20034;-91
2024/03/04 02:32:24;;;;;;;27.83;16.27;;;;;;;3.96;75.35;99120.34;4962404;28;20029;-92
2024/03/04 02:34:50;;;;;;;31.92;15.82;;;;;;;4.08;74.92;99111.56;4962511;28;20486;-91
2024/03/04 02:37:15;;;;;;;28.42;16.35;;;;;;;4.09;74.82;99105.19;4963124;28;20031;-92
2024/03/04 02:39:42;;;;;;;28.08;16.73;;;;;;;4.18;74.31;99106.47;4946696;28;20484;-93
2024/03/04 02:42:07;;;;;;;28.23;16.65;;;;;;;4.09;74.16;99092.69;4962182;28;20416;-92
2024/03/04 02:44:33;;;;;;;25.85;15.55;;;;;;;4.30;74.10;99119.78;4962849;28;20019;-93
2024/03/04 02:46:59;;;;;;;30.58;16.20;;;;;;;4.20;73.53;99105.19;4946988;28;20122;-92
2024/03/04 02:49:24;;;;;;;27.40;15.30;;;;;;;4.28;72.86;99111.22;4962939;28;20088;-93
2024/03/04 02:51:50;;;;;;;25.95;16.23;;;;;;;4.28;72.61;99103.22;4963311;28;20030;-91
2024/03/04 02:54:16;;;;;;;29.05;15.68;;;;;;;4.25;73.52;99102.66;4962392;28;20026;-91
2024/03/04 02:56:41;;;;;;;31.45;15.48;;;;;;;4.43;72.83;99127.53;4963140;28;20499;-92
2024/03/04 02:59:07;;;;;;;29.33;15.85;;;;;;;4.30;72.85;99104.59;4946510;28;20022;-91
2024/03/04 03:01:32;;;;;;;29.48;14.48;;;;;;;4.52;72.92;99135.97;4962107;28;20034;-91
2024/03/04 03:03:58;;;;;;;23.77;13.70;;;;;;;4.24;72.84;99093.03;4962534;28;20022;-92
2024/03/04 03:06:25;;;;;;;30.50;16.73;;;;;;;4.01;73.07;99109.84;4961815;28;20026;-92
2024/03/04 03:08:51;;;;;;;29.17;16.00;;;;;;;3.81;72.92;99107.50;4963509;28;20512;-92
2024/03/04 03:11:17;;;;;;;29.42;16.17;;;;;;;3.84;72.95;99138.22;4966356;28;20018;-91
2024/03/04 03:13:44;;;;;;;24.02;14.15;;;;;;;3.59;73.67;99120.56;4981234;28;20084;-92
2024/03/04 03:16:22;;;;;;;30.80;15.70;;;;;;;3.61;73.35;99145.13;4950134;28;20019;-91
2024/03/04 03:18:48;;;;;;;33.92;16.63;;;;;;;3.46;73.83;99144.72;4965050;28;20080;-92
2024/03/04 03:21:14;;;;;;;35.85;17.45;;;;;;;3.28;74.80;99137.63;4965197;28;20018;-92
2024/03/04 03:23:41;;;;;;;27.42;15.80;;;;;;;3.20;74.48;99127.31;4981546;28;20022;-93
2024/03/04 03:26:10;;;;;;;31.40;16.77;;;;;;;3.33;75.11;99159.03;4965010;28;20026;-91
2024/03/04 03:28:40;;;;;;;32.00;17.00;;;;;;;3.29;74.89;99163.19;4965380;28;20049;-92
2024/03/04 03:31:07;;;;;;;34.38;17.05;;;;;;;2.99;75.81;99125.97;4967893;28;20409;-91
2024/03/04 03:33:36;;;;;;;29.70;17.15;;;;;;;3.11;75.30;99142.75;4966505;28;20080;-91
2024/03/04 03:36:02;;;;;;;30.95;16.75;;;;;;;3.13;75.19;99121.25;4949678;28;20045;-91
2024/03/04 03:38:29;;;;;;;29.17;17.10;;;;;;;3.12;75.37;99116.97;4965568;28;20022;-91
2024/03/04 03:40:55;;;;;;;32.13;16.92;;;;;;;3.17;75.00;99122.41;4964835;28;20029;-90
2024/03/04 03:43:21;;;;;;;32.05;16.52;;;;;;;3.26;74.51;99114.91;4965677;28;20034;-91
2024/03/04 03:45:46;;;;;;;37.65;17.15;;;;;;;3.34;74.66;99128.75;4965385;28;20026;-91
2024/03/04 03:48:15;;;;;;;29.83;16.90;;;;;;;3.47;74.80;99149.03;4965147;28;20026;-91
2024/03/04 03:50:40;;;;;;;31.52;16.40;;;;;;;3.46;75.24;99143.91;4965969;28;20061;-92
2024/03/04 03:53:06;;;;;;;27.73;17.27;;;;;;;3.30;74.74;99111.59;4961743;28;20109;-91
2024/03/04 03:55:31;;;;;;;36.42;17.98;;;;;;;3.06;75.06;99115.22;4957899;28;20034;-91
2024/03/04 03:57:57;;;;;;;33.53;18.05;;;;;;;3.21;75.78;99148.34;4983630;28;20010;-92
2024/03/04 04:00:23;;;;;;;38.47;18.42;;;;;;;3.01;75.48;99124.69;4984836;28;20010;-91
2024/03/04 04:02:48;;;;;;;37.88;20.13;;;;;;;3.12;75.83;99143.59;4986704;28;20029;-91
2024/03/04 04:05:15;;;;;;;29.45;17.55;;;;;;;3.05;75.34;99141.00;4969492;28;20427;-91
2024/03/04 04:07:40;;;;;;;28.75;17.10;;;;;;;3.09;74.63;99120.88;5000211;28;20021;-91
2024/03/04 04:10:06;;;;;;;27.13;16.67;;;;;;;3.24;75.14;99142.59;4983929;28;20029;-91
2024/03/04 04:12:32;;;;;;;31.63;17.75;;;;;;;3.48;74.45;99155.16;4962350;28;20129;-91
2024/03/04 04:14:57;;;;;;;25.80;16.35;;;;;;;3.44;73.91;99144.13;4946031;28;20039;-92
2024/03/04 04:17:23;;;;;;;34.38;17.75;;;;;;;3.30;74.68;99167.47;4945665;28;20077;-91
2024/03/04 04:19:49;;;;;;;41.45;18.08;;;;;;;3.11;74.98;99155.25;4944518;28;20026;-90
2024/03/04 04:22:14;;;;;;;30.85;17.88;;;;;;;3.32;74.66;99189.34;4945516;28;20025;-91
2024/03/04 04:24:40;;;;;;;25.00;15.90;;;;;;;3.07;74.96;99156.72;4945929;28;20018;-90
2024/03/04 04:27:06;;;;;;;34.28;17.13;;;;;;;3.07;75.14;99162.84;4948728;28;20053;-91
2024/03/04 04:29:33;;;;;;;33.65;18.15;;;;;;;2.96;74.97;99158.31;4965136;28;20034;-91
2024/03/04 04:31:59;;;;;;;31.30;16.95;;;;;;;2.91;75.33;99172.28;4971344;28;20033;-92
2024/03/04 04:34:25;;;;;;;27.77;17.67;;;;;;;2.81;75.20;99166.66;4964617;28;20181;-91
2024/03/04 04:36:50;;;;;;;30.38;17.92;;;;;;;2.74;74.96;99149.97;4948354;28;20055;-92
2024/03/04 04:39:17;;;;;;;35.70;18.20;;;;;;;2.63;75.68;99151.53;4964570;28;20022;-93
2024/03/04 04:41:42;;;;;;;32.65;17.17;;;;;;;2.75;75.22;99168.38;4949587;28;20026;-92
2024/03/04 04:44:08;;;;;;;36.05;19.05;;;;;;;2.68;76.29;99167.63;4964048;28;20100;-92
2024/03/04 04:46:34;;;;;;;31.33;16.88;;;;;;;2.77;75.98;99153.00;4964114;28;20029;-91
2024/03/04 04:49:00;;;;;;;37.50;16.98;;;;;;;2.97;75.17;99182.03;4948064;28;20026;-92
2024/03/04 04:51:26;;;;;;;32.40;17.30;;;;;;;2.87;75.00;99149.03;4947239;28;20060;-92
2024/03/04 04:53:52;;;;;;;42.80;17.65;;;;;;;3.06;74.95;99176.41;4964276;28;20022;-92
2024/03/04 04:56:17;;;;;;;34.95;17.38;;;;;;;3.02;74.69;99157.41;4964335;28;20034;-91
2024/03/04 04:58:43;;;;;;;35.13;19.08;;;;;;;3.04;74.92;99171.28;4966572;28;20054;-90
2024/03/04 05:01:09;;;;;;;35.97;18.48;;;;;;;3.14;75.04;99198.19;4981669;28;20029;-91
2024/03/04 05:03:35;;;;;;;40.15;19.00;;;;;;;2.93;75.37;99156.09;4962581;28;20053;-90
2024/03/04 05:06:01;;;;;;;35.03;18.20;;;;;;;2.88;75.23;99167.38;4969917;28;20068;-90
2024/03/04 05:08:27;;;;;;;36.78;19.88;;;;;;;2.82;75.26;99158.47;4964346;28;20026;-90
2024/03/04 05:10:55;;;;;;;28.48;18.17;;;;;;;2.95;75.00;99164.66;4946427;28;20489;-89
2024/03/04 05:13:21;;;;;;;33.95;17.85;;;;;;;3.11;74.80;99187.97;4966093;28;20055;-89
2024/03/04 05:15:47;;;;;;;28.98;17.42;;;;;;;2.90;74.89;99170.63;4979134;28;20029;-91
2024/03/04 05:18:13;;;;;;;27.00;17.40;;;;;;;2.97;75.48;99176.69;4979203;28;20030;-91
2024/03/04 05:20:39;;;;;;;32.60;18.35;;;;;;;2.86;74.40;99166.00;4963189;28;20117;-91
2024/03/04 05:23:04;;;;;;;33.40;17.55;;;;;;;2.97;74.63;99197.16;4962163;28;20473;-91
2024/03/04 05:25:30;;;;;;;29.25;15.25;;;;;;;2.94;74.52;99177.13;4962528;28;20026;-89
2024/03/04 05:27:56;;;;;;;28.17;16.02;;;;;;;2.95;75.21;99196.59;4959880;28;20046;-90
2024/03/04 05:30:22;;;;;;;30.85;17.17;;;;;;;2.90;75.08;99202.53;4958770;28;20049;-93
2024/03/04 05:32:50;;;;;;;29.90;17.05;;;;;;;3.00;74.76;99200.19;4959549;28;20070;-91
2024/03/04 05:35:18;;;;;;;32.67;17.50;;;;;;;3.04;75.00;99200.56;4960548;28;20022;-92
2024/03/04 05:37:44;;;;;;;33.55;17.90;;;;;;;3.06;74.55;99192.34;4959365;28;20022;-91
2024/03/04 05:40:10;;;;;;;34.85;18.02;;;;;;;3.06;74.45;99192.34;4959122;28;20026;-92
2024/03/04 05:42:39;;;;;;;39.22;17.05;;;;;;;3.16;74.71;99209.41;4942923;28;20414;-91
2024/03/04 05:45:09;;;;;;;31.05;18.10;;;;;;;3.24;74.36;99202.97;4960230;28;20445;-94
2024/03/04 05:47:35;;;;;;;32.40;17.92;;;;;;;3.36;74.21;99211.81;4944880;28;20030;-90
2024/03/04 05:50:03;;;;;;;29.45;16.30;;;;;;;3.27;74.19;99202.50;4959994;28;20425;-91
2024/03/04 05:52:32;;;;;;;35.17;17.58;;;;;;;3.35;73.85;99204.84;4960791;28;20499;-88
2024/03/04 05:54:57;;;;;;;34.72;18.02;;;;;;;3.40;73.38;99196.19;4977303;28;20117;-92
2024/03/04 05:57:23;;;;;;;30.23;16.52;;;;;;;3.51;73.34;99211.41;4958888;28;20023;-92
2024/03/04 05:59:49;;;;;;;33.65;17.50;;;;;;;3.48;73.71;99209.19;4959714;28;20027;-91
2024/03/04 06:02:14;;;;;;;33.92;17.35;;;;;;;3.64;73.29;99215.72;4959022;28;20023;-91
2024/03/04 06:04:40;;;;;;;29.70;18.13;;;;;;;3.57;72.67;99212.34;4958899;28;20031;-91
2024/03/04 06:07:08;;;;;;;34.28;17.50;;;;;;;3.73;72.86;99230.31;4958917;28;20019;-92
2024/03/04 06:09:33;;;;;;;34.22;19.13;;;;;;;3.64;73.92;99226.38;4974781;28;20034;-92
2024/03/04 06:11:59;;;;;;;34.15;18.73;;;;;;;3.55;73.46;99204.59;4969626;28;20031;-91
2024/03/04 06:14:24;;;;;;;36.13;19.55;;;;;;;3.62;73.08;99201.84;4975374;28;20109;-92
2024/03/04 06:16:50;;;;;;;39.88;19.45;;;;;;;3.77;73.08;99218.19;4959320;28;20026;-91
2024/03/04 06:19:16;;;;;;;34.03;18.88;;;;;;;3.69;73.06;99210.53;4982667;28;20029;-91
2024/03/04 06:21:42;;;;;;;35.50;18.83;;;;;;;3.80;73.35;99211.63;4998944;28;20091;-92
2024/03/04 06:24:08;;;;;;;32.50;19.48;;;;;;;3.97;73.28;99228.53;4999017;28;20087;-92
2024/03/04 06:26:33;;;;;;;39.25;19.92;;;;;;;3.99;73.35;99218.47;4982192;28;20119;-91
2024/03/04 06:28:59;;;;;;;33.45;19.70;;;;;;;4.06;73.07;99210.38;4985158;28;20021;-93
2024/03/04 06:31:24;;;;;;;37.55;20.42;;;;;;;4.20;72.26;99201.13;4985925;28;20083;-91
2024/03/04 06:33:50;;;;;;;37.38;20.65;;;;;;;4.32;71.23;99198.47;4984219;28;20412;-91
2024/03/04 06:36:15;;;;;;;40.85;19.27;;;;;;;4.58;71.35;99212.34;4998810;28;20044;-93
2024/03/04 06:38:41;;;;;;;31.67;19.17;;;;;;;4.72;70.97;99213.75;4965944;28;20017;-91
2024/03/04 06:41:11;;;;;;;34.00;19.45;;;;;;;4.94;70.84;99215.78;4981026;28;20041;-89
2024/03/04 06:43:37;;;;;;;35.83;20.95;;;;;;;5.07;70.25;99211.00;4982558;28;20018;-88
2024/03/04 06:46:03;;;;;;;34.75;19.45;;;;;;;5.27;70.38;99201.75;4984812;28;20153;-89
2024/03/04 06:48:28;;;;;;;32.22;20.92;;;;;;;5.32;70.12;99214.41;4984323;28;20037;-88
2024/03/04 06:50:54;;;;;;;31.23;19.30;;;;;;;5.37;69.71;99201.94;4984648;28;20488;-89
2024/03/04 06:53:22;;;;;;;37.13;20.08;;;;;;;5.70;69.58;99227.13;4968438;28;20030;-88
2024/03/04 06:55:48;;;;;;;37.30;19.25;;;;;;;5.84;69.42;99211.63;5019164;28;20018;-88
2024/03/04 06:58:13;;;;;;;39.47;21.23;;;;;;;5.97;69.18;99203.31;4984845;28;20056;-89
2024/03/04 07:00:40;;;;;;;37.72;19.77;;;;;;;6.15;69.10;99209.47;4984226;28;20034;-89
2024/03/04 07:03:05;;;;;;;39.28;18.67;;;;;;;6.37;68.43;99218.38;4985283;28;20492;-88
2024/03/04 07:05:32;;;;;;;31.58;18.13;;;;;;;6.36;68.09;99191.88;4986115;28;20049;-89
2024/03/04 07:07:57;;;;;;;33.55;19.65;;;;;;;6.61;68.41;99228.88;4967850;28;20029;-88
2024/03/04 07:10:23;;;;;;;41.33;19.90;;;;;;;6.69;68.21;99215.09;4985173;28;20084;-88
2024/03/04 07:12:48;;;;;;;35.83;20.00;;;;;;;6.85;67.85;99208.09;4996697;28;20407;-93
2024/03/04 07:15:14;;;;;;;34.40;20.33;;;;;;;6.87;67.84;99208.66;4988580;28;20030;-91
2024/03/04 07:17:40;;;;;;;124.22;24.60;;;;;;;6.94;68.37;99216.47;4989301;28;20089;-91
2024/03/04 07:20:09;;;;;;;34.65;20.45;;;;;;;6.85;68.05;99184.78;4988303;28;20025;-92
2024/03/04 07:22:36;;;;;;;43.03;20.90;;;;;;;7.18;66.91;99204.47;5005051;28;20450;-92
2024/03/04 07:25:03;;;;;;;43.78;21.63;;;;;;;7.23;67.16;99195.69;4989035;28;20025;-92
2024/03/04 07:27:28;;;;;;;43.38;21.85;;;;;;;7.37;67.01;99196.09;4996108;28;20054;-92
2024/03/04 07:29:53;;;;;;;34.53;20.40;;;;;;;7.47;66.40;99190.84;4984781;28;20080;-92
2024/03/04 07:32:19;;;;;;;48.75;23.98;;;;;;;7.53;66.22;99178.31;4984175;28;20030;-92
2024/03/04 07:34:45;;;;;;;60.13;26.52;;;;;;;7.76;65.93;99182.53;4985240;28;20396;-93
2024/03/04 07:37:10;;;;;;;42.92;20.58;;;;;;;7.92;65.35;99170.88;4987446;28;20087;-91
2024/03/04 07:39:36;;;;;;;36.28;19.58;;;;;;;8.14;65.45;99170.78;4986358;28;20026;-92
2024/03/04 07:42:01;;;;;;;40.75;20.65;;;;;;;8.24;64.74;99170.88;4985355;28;20029;-92
2024/03/04 07:44:29;;;;;;;37.10;21.02;;;;;;;8.38;64.62;99165.84;4984503;28;20018;-92
2024/03/04 07:46:55;;;;;;;90.18;22.58;;;;;;;8.51;64.38;99170.00;4984198;28;20108;-92
2024/03/04 07:49:20;;;;;;;33.47;18.88;;;;;;;8.73;64.05;99163.66;4984603;28;20044;-93
2024/03/04 07:51:46;;;;;;;31.83;19.10;;;;;;;8.96;64.02;99182.00;4967979;28;20045;-92
2024/03/04 07:54:11;;;;;;;44.85;20.23;;;;;;;9.10;63.16;99167.03;5000980;28;20026;-92
2024/03/04 07:56:37;;;;;;;33.30;20.15;;;;;;;9.20;62.91;99158.19;4964061;28;20060;-91
2024/03/04 07:59:02;;;;;;;38.10;19.17;;;;;;;9.18;63.04;99138.03;4958686;28;20054;-91
2024/03/04 08:01:28;;;;;;;35.47;17.85;;;;;;;9.43;62.70;99145.34;4946586;28;20117;-93
2024/03/04 08:03:54;;;;;;;33.50;18.55;;;;;;;9.66;62.04;99160.97;4946830;28;20027;-92
2024/03/04 08:06:20;;;;;;;32.15;18.42;;;;;;;9.76;61.81;99141.34;4948069;28;20057;-93
2024/03/04 08:08:48;;;;;;;30.38;16.63;;;;;;;9.99;61.29;99155.34;4946465;28;20031;-92
2024/03/04 08:11:14;;;;;;;28.02;16.98;;;;;;;10.13;61.12;99151.03;4944769;28;20029;-92
2024/03/04 08:13:40;;;;;;;23.30;14.50;;;;;;;10.16;60.92;99137.00;4945928;28;20026;-91
2024/03/04 08:16:06;;;;;;;23.20;13.27;;;;;;;10.46;60.44;99148.84;4930086;28;20067;-93
2024/03/04 08:18:31;;;;;;;32.97;14.60;;;;;;;10.41;60.47;99121.94;4944917;28;20038;-93
2024/03/04 08:20:57;;;;;;;29.48;16.05;;;;;;;10.69;59.59;99132.06;4934486;28;20028;-92
2024/03/04 08:23:22;;;;;;;20.27;13.75;;;;;;;10.88;59.60;99134.94;4963170;28;20026;-92
2024/03/04 08:25:48;;;;;;;22.30;12.77;;;;;;;11.08;58.94;99144.84;4963899;28;20026;-92
2024/03/04 08:28:14;;;;;;;20.20;12.85;;;;;;;11.11;58.53;99127.31;4963779;28;20551;-92
2024/03/04 08:30:39;;;;;;;26.48;13.02;;;;;;;11.20;58.32;99122.94;4963499;28;20390;-91
2024/03/04 08:33:05;;;;;;;19.08;11.55;;;;;;;11.33;58.12;99125.03;4949586;28;20053;-91
2024/03/04 08:35:30;;;;;;;16.40;10.57;;;;;;;11.54;57.60;99132.97;4963811;28;20033;-91
2024/03/04 08:38:02;;;;;;;14.45;10.13;;;;;;;11.73;56.39;99133.91;4971653;28;20029;-93
2024/03/04 08:40:30;;;;;;;14.60;9.95;;;;;;;11.87;56.28;99127.84;4961742;28;20027;-92
2024/03/04 08:42:57;;;;;;;14.50;8.90;;;;;;;11.96;56.06;99123.50;4965211;28;20026;-91
2024/03/04 08:45:22;;;;;;;27.00;9.75;;;;;;;12.12;55.79;99134.97;4944823;28;20026;-92
2024/03/04 08:47:48;;;;;;;15.10;10.15;;;;;;;12.16;55.53;99127.09;4945085;28;20038;-93
2024/03/04 08:50:13;;;;;;;14.77;9.55;;;;;;;12.26;55.65;99135.06;4952626;28;20034;-92
2024/03/04 08:52:39;;;;;;;15.25;9.43;;;;;;;12.26;54.87;99119.69;4950439;28;20030;-91
2024/03/04 08:55:05;;;;;;;14.68;8.73;;;;;;;12.51;53.77;99126.72;4953376;28;20058;-91
2024/03/04 08:57:30;;;;;;;17.10;10.07;;;;;;;12.44;53.69;99099.25;4946838;28;20041;-92
2024/03/04 08:59:56;;;;;;;14.20;9.07;;;;;;;12.63;53.49;99115.50;4933019;28;20050;-92
2024/03/04 09:02:24;;;;;;;15.65;9.32;;;;;;;12.74;53.10;99118.88;4944849;28;20031;-91
2024/03/04 09:04:50;;;;;;;17.77;9.23;;;;;;;12.89;53.14;99124.13;4943593;28;20042;-91
2024/03/04 09:07:15;;;;;;;18.50;9.85;;;;;;;12.95;53.15;99119.47;4944043;28;20030;-92
2024/03/04 09:09:42;;;;;;;20.45;10.13;;;;;;;13.08;52.95;99124.13;4952632;28;20098;-92
2024/03/04 09:12:08;;;;;;;14.65;8.98;;;;;;;13.12;52.55;99111.66;4954883;28;20041;-91
2024/03/04 09:14:34;;;;;;;16.92;9.75;;;;;;;13.21;52.25;99105.59;4947584;28;20066;-92
2024/03/04 09:16:59;;;;;;;15.05;9.48;;;;;;;13.29;51.38;99102.25;4947495;28;20109;-90
2024/03/04 09:19:25;;;;;;;16.42;8.60;;;;;;;13.40;51.23;99105.59;4947886;28;20034;-91
2024/03/04 09:21:50;;;;;;;16.88;9.13;;;;;;;13.37;50.79;99111.63;4946203;28;20050;-91
2024/03/04 09:24:16;;;;;;;12.13;8.02;;;;;;;13.47;50.58;99100.63;4946434;28;20031;-91
2024/03/04 09:26:47;;;;;;;10.13;7.28;;;;;;;13.65;50.01;99112.50;4946148;28;20039;-91
2024/03/04 09:29:13;;;;;;;13.90;9.05;;;;;;;13.72;49.75;99110.25;4965063;28;20037;-92
2024/03/04 09:31:39;;;;;;;15.00;7.68;;;;;;;13.65;50.35;99090.88;4948397;28;20026;-91
2024/03/04 09:34:05;;;;;;;12.93;7.68;;;;;;;13.91;49.61;99119.13;4957049;28;20034;-92
2024/03/04 09:36:31;;;;;;;12.75;8.85;;;;;;;13.92;49.77;99106.38;4957249;28;20033;-91
2024/03/04 09:39:05;;;;;;;15.57;8.05;;;;;;;13.98;48.58;99088.94;4973124;28;20060;-94
2024/03/04 09:41:31;;;;;;;11.38;7.32;;;;;;;14.11;48.81;99106.31;4973415;28;20027;-93
2024/03/04 09:43:57;;;;;;;14.20;7.40;;;;;;;14.06;49.02;99095.59;4973285;28;20022;-92
2024/03/04 09:46:23;;;;;;;16.02;8.05;;;;;;;13.80;48.62;99073.56;4973246;28;20037;-92
2024/03/04 09:48:51;;;;;;;10.35;7.25;;;;;;;14.00;48.65;99077.84;4957758;28;20034;-92
2024/03/04 09:51:16;;;;;;;11.35;7.43;;;;;;;14.09;48.58;99074.16;4986528;28;20412;-90
2024/03/04 09:53:44;;;;;;;13.93;7.13;;;;;;;14.18;48.40;99084.28;4979745;28;20034;-89
2024/03/04 09:56:11;;;;;;;14.00;6.72;;;;;;;14.38;47.96;99093.91;4974616;28;20109;-92
2024/03/04 09:58:36;;;;;;;13.85;8.27;;;;;;;14.44;47.60;99082.69;4987472;28;20014;-93
2024/03/04 10:01:02;;;;;;;10.45;7.05;;;;;;;14.51;47.37;99076.88;4977822;28;20021;-93
2024/03/04 10:03:30;;;;;;;11.05;7.78;;;;;;;14.58;47.19;99066.44;4977348;28;20022;-93
2024/03/04 10:05:56;;;;;;;12.50;9.00;;;;;;;14.65;47.96;99077.72;4979495;28;20053;-93
2024/03/04 10:08:25;;;;;;;12.80;8.75;;;;;;;14.64;48.07;99057.13;4977083;28;20018;-93
2024/03/04 10:10:50;;;;;;;12.68;8.82;;;;;;;14.89;47.80;99072.03;5009103;28;20025;-90
2024/03/04 10:13:17;;;;;;;10.77;7.55;;;;;;;14.89;47.64;99061.19;5008669;28;20135;-92
2024/03/04 10:15:47;;;;;;;15.93;8.25;;;;;;;14.94;47.31;99066.50;4992484;28;20116;-92
2024/03/04 10:18:13;;;;;;;14.18;8.77;;;;;;;14.86;47.81;99044.75;4978517;28;20014;-92
2024/03/04 10:20:39;;;;;;;15.43;8.38;;;;;;;15.00;47.55;99048.19;4979030;28;20053;-92
2024/03/04 10:23:08;;;;;;;12.60;8.57;;;;;;;15.04;46.42;99042.97;4979328;28;20091;-91
2024/03/04 10:25:34;;;;;;;14.25;9.35;;;;;;;15.20;47.15;99054.28;5013194;28;20009;-90
2024/03/04 10:27:59;;;;;;;12.43;8.13;;;;;;;15.11;46.54;99029.81;4979197;28;20066;-93
2024/03/04 10:30:26;;;;;;;15.07;8.75;;;;;;;15.31;46.54;99064.56;4997169;28;20030;-93
2024/03/04 10:32:56;;;;;;;15.35;8.82;;;;;;;15.23;46.73;99030.06;4997483;28;20491;-92
2024/03/04 10:35:22;;;;;;;12.35;7.65;;;;;;;15.32;46.31;99025.50;4980310;28;20511;-92
2024/03/04 10:37:48;;;;;;;14.85;7.50;;;;;;;15.22;45.74;99022.22;4997463;28;20017;-93
2024/03/04 10:40:17;;;;;;;12.75;7.03;;;;;;;15.34;45.45;99033.34;4981402;28;20026;-92
2024/03/04 10:42:44;;;;;;;16.00;7.28;;;;;;;15.31;45.49;99021.16;4980681;28;20184;-93
2024/03/04 10:45:12;;;;;;;10.95;7.18;;;;;;;15.44;45.20;99022.25;4980508;28;20022;-92
2024/03/04 10:47:39;;;;;;;12.50;7.03;;;;;;;15.50;44.56;99017.47;4980165;28;20025;-92
2024/03/04 10:50:05;;;;;;;9.82;6.97;;;;;;;15.53;44.59;99001.38;4995476;28;20444;-93
2024/03/04 10:52:31;;;;;;;11.75;7.22;;;;;;;15.54;44.66;99003.00;4992563;28;20037;-92
2024/03/04 10:54:57;;;;;;;11.75;6.80;;;;;;;15.56;44.34;98995.34;4990506;28;20137;-92
2024/03/04 10:57:34;;;;;;;14.63;7.70;;;;;;;15.71;44.67;99001.50;4967722;28;20125;-93
2024/03/04 11:00:30;;;;;;;15.57;8.10;;;;;;;15.79;45.10;98995.31;4958210;28;20089;-93
2024/03/04 11:03:02;;;;;;;13.65;7.90;;;;;;;15.92;45.27;99018.84;4993721;28;20034;-94
2024/03/04 11:05:31;;;;;;;9.93;7.15;;;;;;;15.85;44.90;98988.63;5001720;28;20029;-92
2024/03/04 11:08:36;;;;;;;12.57;8.23;;;;;;;15.93;44.60;98989.78;4952558;28;20034;-94
2024/03/04 11:11:09;;;;;;;15.05;8.20;;;;;;;15.98;44.98;99005.94;4964590;28;20085;-93
2024/03/04 11:13:34;;;;;;;15.13;8.15;;;;;;;16.00;44.57;99002.91;4967368;28;20099;-93
2024/03/04 11:16:09;;;;;;;12.63;8.05;;;;;;;16.04;44.60;99001.97;4982140;28;20058;-94
2024/03/04 11:18:55;;;;;;;13.55;8.65;;;;;;;16.07;44.88;98992.41;4982942;28;20026;-94
2024/03/04 11:21:21;;;;;;;12.73;8.25;;;;;;;15.97;44.89;98966.31;4966230;28;20022;-92